Time;durP1;ratioP1;P1;durP2;ratioP2;P2;SDS_P1;SDS_P2;PMS_P1;PMS_P2;Temp;Humidity;BMP_temperature;BMP_pressure;BME280_temperature;BME280_humidity;BME280_pressure;Samples;Min_cycle;Max_cycle;Signal;HPM_P1;HPM_P2
2023/05/09 00:00:36;;;;;;;44.25;24.27;;;;;;;14.44;97.61;101810.06;6100323;23;20019;-80
2023/05/09 00:03:04;;;;;;;47.17;25.15;;;;;;;14.45;98.07;101813.47;6099370;23;20019;-80
2023/05/09 00:05:31;;;;;;;45.97;24.75;;;;;;;14.43;97.90;101802.44;6100025;23;20023;-80
2023/05/09 00:07:57;;;;;;;47.45;25.80;;;;;;;14.43;97.34;101805.13;6100128;23;20397;-80
2023/05/09 00:10:26;;;;;;;47.67;26.63;;;;;;;14.41;98.18;101804.78;6074163;23;20022;-80
2023/05/09 00:12:52;;;;;;;42.83;24.80;;;;;;;14.38;97.96;101800.34;6100538;23;20022;-80
2023/05/09 00:15:19;;;;;;;41.67;25.00;;;;;;;14.35;97.99;101794.69;6100240;23;20025;-80
2023/05/09 00:17:46;;;;;;;45.53;24.15;;;;;;;14.37;98.49;101790.81;6074310;23;20494;-80
2023/05/09 00:20:12;;;;;;;45.95;23.88;;;;;;;14.37;98.17;101793.50;6100250;23;20046;-80
2023/05/09 00:22:39;;;;;;;46.85;24.67;;;;;;;14.34;98.21;101795.88;6100114;23;20434;-80
2023/05/09 00:25:08;;;;;;;47.30;25.40;;;;;;;14.32;98.18;101792.13;6099307;23;20023;-80
2023/05/09 00:27:35;;;;;;;44.75;24.33;;;;;;;14.27;98.52;101798.06;6100094;23;20019;-80
2023/05/09 00:30:04;;;;;;;44.70;25.33;;;;;;;14.26;98.98;101793.88;6074062;23;20022;-80
2023/05/09 00:32:32;;;;;;;46.40;25.75;;;;;;;14.22;99.12;101796.69;6099875;23;20030;-80
2023/05/09 00:34:59;;;;;;;46.33;25.05;;;;;;;14.23;99.23;101794.75;6099792;23;20078;-80
2023/05/09 00:37:25;;;;;;;45.33;24.63;;;;;;;14.22;98.96;101794.00;6100389;23;20019;-80
2023/05/09 00:39:54;;;;;;;50.70;24.92;;;;;;;14.22;98.95;101787.91;6099906;23;20070;-80
2023/05/09 00:42:21;;;;;;;43.05;23.45;;;;;;;14.21;99.02;101792.53;6074463;23;20023;-80
2023/05/09 00:44:48;;;;;;;44.05;23.27;;;;;;;14.16;99.29;101785.06;6050533;23;20029;-80
2023/05/09 00:47:14;;;;;;;46.50;24.35;;;;;;;14.15;98.99;101783.56;6074239;23;20015;-80
2023/05/09 00:49:41;;;;;;;42.47;23.77;;;;;;;14.15;99.49;101783.56;6100116;23;20172;-80
2023/05/09 00:52:08;;;;;;;43.05;24.45;;;;;;;14.15;99.23;101778.19;6099930;23;20070;-80
2023/05/09 00:54:35;;;;;;;41.15;22.48;;;;;;;14.17;99.55;101775.09;6099557;23;20023;-80
2023/05/09 00:57:01;;;;;;;47.80;25.40;;;;;;;14.14;99.68;101774.03;6099546;23;20015;-80
2023/05/09 00:59:28;;;;;;;48.60;26.40;;;;;;;14.10;100.00;101780.69;6100171;23;20019;-81
2023/05/09 01:01:55;;;;;;;49.30;25.38;;;;;;;14.05;100.00;101779.34;6050358;23;21372;-81
2023/05/09 01:04:21;;;;;;;49.78;25.15;;;;;;;14.03;100.00;101769.06;6100131;23;20480;-81
2023/05/09 01:07:04;;;;;;;50.05;26.38;;;;;;;14.00;100.00;101763.84;6099933;23;20461;-80
2023/05/09 01:09:59;;;;;;;51.47;26.48;;;;;;;13.96;100.00;101761.31;6099617;23;20471;-79
2023/05/09 01:12:50;;;;;;;51.83;25.63;;;;;;;13.95;100.00;101756.41;6100441;23;20059;-80
2023/05/09 01:15:33;;;;;;;48.45;25.42;;;;;;;13.93;100.00;101745.38;6099994;23;20046;-79
2023/05/09 01:18:11;;;;;;;51.30;25.17;;;;;;;13.91;100.00;101745.81;6099722;23;20023;-80
2023/05/09 01:20:45;;;;;;;48.38;25.60;;;;;;;13.91;100.00;101737.78;6074119;23;20023;-80
2023/05/09 01:23:21;;;;;;;44.95;24.77;;;;;;;13.90;100.00;101736.28;6099061;23;20051;-80
2023/05/09 01:26:05;;;;;;;54.33;25.52;;;;;;;13.91;100.00;101731.69;6073933;23;20031;-80
2023/05/09 01:29:09;;;;;;;56.03;27.15;;;;;;;13.88;100.00;101729.88;6100020;23;20055;-80
2023/05/09 01:31:40;;;;;;;53.45;27.08;;;;;;;13.86;100.00;101724.22;6100041;23;20019;-80
2023/05/09 01:34:10;;;;;;;55.42;26.65;;;;;;;13.85;100.00;101723.47;6074115;23;20019;-80
2023/05/09 01:36:39;;;;;;;51.53;27.52;;;;;;;13.82;100.00;101716.31;6073647;23;20027;-80
2023/05/09 01:39:10;;;;;;;58.97;28.05;;;;;;;13.82;100.00;101720.91;6072989;23;20027;-80
2023/05/09 01:41:37;;;;;;;61.55;28.70;;;;;;;13.83;100.00;101722.41;6099747;23;20054;-80
2023/05/09 01:44:11;;;;;;;54.75;28.40;;;;;;;13.84;100.00;101721.97;6099479;23;20022;-80
2023/05/09 01:46:38;;;;;;;53.10;27.77;;;;;;;13.84;100.00;101721.97;6099855;23;20030;-79
2023/05/09 01:49:08;;;;;;;57.03;28.63;;;;;;;13.85;100.00;101714.69;6073450;23;20019;-80
2023/05/09 01:51:36;;;;;;;54.67;26.98;;;;;;;13.85;100.00;101717.38;6099676;23;20521;-79
2023/05/09 01:54:05;;;;;;;55.08;28.40;;;;;;;13.84;100.00;101715.88;6072740;23;20030;-80
2023/05/09 01:56:35;;;;;;;53.15;28.20;;;;;;;13.83;100.00;101711.72;6073551;23;20031;-80
2023/05/09 01:59:05;;;;;;;52.03;27.05;;;;;;;13.80;100.00;101710.66;6073382;23;20023;-79
2023/05/09 02:01:33;;;;;;;50.95;26.83;;;;;;;13.82;100.00;101707.53;6073917;23;20050;-79
2023/05/09 02:04:01;;;;;;;51.72;26.70;;;;;;;13.79;100.00;101711.09;6068293;23;20476;-78
2023/05/09 02:06:28;;;;;;;52.95;27.35;;;;;;;13.79;100.00;101698.44;6044316;23;20047;-79
2023/05/09 02:08:56;;;;;;;52.60;27.60;;;;;;;13.78;100.00;101698.88;6068874;23;20023;-78
2023/05/09 02:11:24;;;;;;;47.53;26.80;;;;;;;13.79;100.00;101695.03;6069080;23;20015;-80
2023/05/09 02:13:51;;;;;;;52.95;27.83;;;;;;;13.78;100.00;101691.59;6068604;23;20442;-79
2023/05/09 02:16:17;;;;;;;57.17;27.25;;;;;;;13.79;100.00;101697.72;6068867;23;20373;-79
2023/05/09 02:18:46;;;;;;;46.55;27.10;;;;;;;13.78;100.00;101696.22;6068537;23;20098;-79
2023/05/09 02:21:13;;;;;;;60.08;27.98;;;;;;;13.77;100.00;101694.72;6068062;23;20020;-79
2023/05/09 02:23:39;;;;;;;52.00;27.73;;;;;;;13.75;100.00;101681.03;6068551;23;20446;-79
2023/05/09 02:26:06;;;;;;;57.75;28.65;;;;;;;13.73;100.00;101676.13;6070485;23;20019;-79
2023/05/09 02:28:34;;;;;;;56.08;29.10;;;;;;;13.72;100.00;101682.66;6068559;23;20429;-79
2023/05/09 02:31:05;;;;;;;62.45;28.92;;;;;;;13.70;100.00;101682.34;6068445;23;20977;-79
2023/05/09 02:33:35;;;;;;;55.72;28.48;;;;;;;13.68;100.00;101676.69;6068784;23;20603;-79
2023/05/09 02:36:02;;;;;;;52.35;28.30;;;;;;;13.65;100.00;101674.88;6069871;23;20386;-79
2023/05/09 02:38:29;;;;;;;58.47;28.77;;;;;;;13.65;100.00;101678.31;6070057;23;20112;-78
2023/05/09 02:40:55;;;;;;;52.13;27.33;;;;;;;13.64;100.00;101676.81;6070387;23;20018;-79
2023/05/09 02:43:24;;;;;;;55.45;26.90;;;;;;;13.62;100.00;101676.50;6070959;23;20067;-80
2023/05/09 02:45:51;;;;;;;52.83;27.83;;;;;;;13.62;100.00;101689.88;6093005;23;20032;-79
2023/05/09 02:48:18;;;;;;;61.30;26.98;;;;;;;13.59;100.00;101685.44;6070262;23;20446;-79
2023/05/09 02:50:45;;;;;;;54.83;27.83;;;;;;;13.59;100.00;101680.06;6069647;23;20026;-79
2023/05/09 02:53:11;;;;;;;55.13;27.70;;;;;;;13.61;100.00;101674.25;6068260;23;20015;-79
2023/05/09 02:55:39;;;;;;;53.60;28.60;;;;;;;13.60;100.00;101665.50;6068124;23;20051;-79
2023/05/09 02:58:07;;;;;;;52.80;26.80;;;;;;;13.58;100.00;101664.47;6069534;23;20441;-79
2023/05/09 03:00:41;;;;;;;53.42;27.92;;;;;;;13.56;100.00;101659.53;6070112;23;20079;-79
2023/05/09 03:03:08;;;;;;;57.35;28.30;;;;;;;13.56;100.00;101664.16;6069090;23;20030;-79
2023/05/09 03:05:35;;;;;;;50.67;27.42;;;;;;;13.55;100.00;101660.72;6070863;23;20055;-79
2023/05/09 03:08:02;;;;;;;52.47;27.80;;;;;;;13.55;100.00;101658.06;6071548;23;20019;-79
2023/05/09 03:10:29;;;;;;;55.42;27.15;;;;;;;13.56;100.00;101651.53;6069480;23;20024;-79
2023/05/09 03:12:55;;;;;;;47.08;25.88;;;;;;;13.54;100.00;101650.47;6069929;23;20091;-79
2023/05/09 03:15:22;;;;;;;58.03;28.30;;;;;;;13.54;100.00;101645.13;6070321;23;20031;-78
2023/05/09 03:17:49;;;;;;;51.40;27.38;;;;;;;13.54;100.00;101647.78;6069902;23;20019;-78
2023/05/09 03:20:15;;;;;;;53.60;27.88;;;;;;;13.52;100.00;101648.22;6070791;23;20103;-79
2023/05/09 03:22:42;;;;;;;53.55;27.15;;;;;;;13.51;100.00;101641.38;6069676;23;20023;-78
2023/05/09 03:25:10;;;;;;;55.42;27.05;;;;;;;13.47;100.00;101630.06;6046046;23;20060;-79
2023/05/09 03:27:37;;;;;;;56.20;28.63;;;;;;;13.45;100.00;101629.00;6069677;23;20023;-79
2023/05/09 03:30:07;;;;;;;51.90;28.33;;;;;;;13.44;100.00;101624.84;6069443;23;20027;-79
2023/05/09 03:32:34;;;;;;;57.03;27.80;;;;;;;13.42;100.00;101625.28;6069557;23;20090;-79
2023/05/09 03:35:01;;;;;;;53.22;27.83;;;;;;;13.39;100.00;101620.81;6068953;23;20414;-79
2023/05/09 03:37:27;;;;;;;53.70;27.20;;;;;;;13.39;100.00;101620.06;6069813;23;20019;-79
2023/05/09 03:39:54;;;;;;;52.58;27.48;;;;;;;13.38;100.00;101616.63;6069825;23;20026;-79
2023/05/09 03:42:22;;;;;;;54.65;27.55;;;;;;;13.35;100.00;101610.22;6069718;23;20019;-79
2023/05/09 03:44:55;;;;;;;55.53;26.90;;;;;;;13.34;100.00;101598.03;6069913;23;20533;-79
2023/05/09 03:47:22;;;;;;;56.90;28.42;;;;;;;13.36;100.00;101605.63;6069917;23;20019;-79
2023/05/09 03:49:49;;;;;;;55.63;28.13;;;;;;;13.35;100.00;101602.22;6045099;23;20019;-79
2023/05/09 03:52:19;;;;;;;48.45;27.00;;;;;;;13.33;100.00;101587.78;6069168;23;20051;-79
2023/05/09 03:54:47;;;;;;;52.38;26.33;;;;;;;13.33;100.00;101585.09;6046080;23;20023;-79
2023/05/09 03:57:14;;;;;;;52.08;26.23;;;;;;;13.32;100.00;101586.28;6069368;23;20023;-79
2023/05/09 03:59:41;;;;;;;51.00;26.10;;;;;;;13.32;100.00;101580.94;6069012;23;20106;-79
2023/05/09 04:02:09;;;;;;;47.53;25.85;;;;;;;13.32;100.00;101586.28;6071834;23;20051;-79
2023/05/09 04:04:36;;;;;;;51.70;25.17;;;;;;;13.31;100.00;101579.44;6073468;23;20467;-79
2023/05/09 04:07:03;;;;;;;45.15;25.55;;;;;;;13.31;100.00;101574.09;6074100;23;20099;-79
2023/05/09 04:09:30;;;;;;;51.65;25.70;;;;;;;13.31;100.00;101574.84;6099301;23;20464;-79
2023/05/09 04:11:56;;;;;;;47.03;25.67;;;;;;;13.31;100.00;101580.19;6099717;23;20018;-79
2023/05/09 04:14:23;;;;;;;47.75;24.73;;;;;;;13.32;100.00;101583.63;6073737;23;20078;-79
2023/05/09 04:16:50;;;;;;;49.13;25.17;;;;;;;13.30;100.00;101572.59;6073687;23;20019;-79
2023/05/09 04:19:19;;;;;;;46.75;23.80;;;;;;;13.32;100.00;101580.94;6073538;23;20417;-79
2023/05/09 04:21:45;;;;;;;42.97;23.10;;;;;;;13.31;100.00;101580.19;6050166;23;20096;-79
2023/05/09 04:24:12;;;;;;;45.72;24.20;;;;;;;13.31;100.00;101574.09;6050240;23;20123;-79
2023/05/09 04:26:43;;;;;;;;;;;;;;;13.32;100.00;101576.34;6051934;23;20145;-79
2023/05/09 04:29:14;;;;;;;41.47;22.33;;;;;;;13.29;100.00;101585.22;6074409;23;19977;-79
2023/05/09 04:31:44;;;;;;;38.10;21.53;;;;;;;13.30;100.00;101583.31;6073142;23;20019;-79
2023/05/09 04:34:12;;;;;;;40.20;22.45;;;;;;;13.29;100.00;101581.81;6073893;23;20030;-79
2023/05/09 04:36:39;;;;;;;47.78;22.95;;;;;;;13.28;100.00;101580.31;6074085;23;20019;-79
2023/05/09 04:39:07;;;;;;;39.70;21.48;;;;;;;13.28;100.00;101570.38;6074221;23;20390;-79
2023/05/09 04:41:34;;;;;;;41.08;22.50;;;;;;;13.27;100.00;101573.47;6073752;23;20011;-79
2023/05/09 04:44:02;;;;;;;41.10;22.67;;;;;;;13.28;100.00;101575.72;6074107;23;20082;-79
2023/05/09 04:46:28;;;;;;;37.95;22.27;;;;;;;13.30;100.00;101559.97;6097809;23;20050;-79
2023/05/09 04:48:55;;;;;;;34.80;21.60;;;;;;;13.32;100.00;101560.28;6074027;23;20452;-79
2023/05/09 04:51:22;;;;;;;37.78;21.25;;;;;;;13.31;100.00;101556.13;6074509;23;20022;-79
2023/05/09 04:53:49;;;;;;;35.40;20.67;;;;;;;13.31;100.00;101550.78;6073929;23;20079;-79
2023/05/09 04:56:18;;;;;;;32.78;20.30;;;;;;;13.32;100.00;101551.53;6073793;23;20428;-79
2023/05/09 04:58:46;;;;;;;32.30;19.25;;;;;;;13.33;100.00;101542.31;6073737;23;20314;-79
2023/05/09 05:01:15;;;;;;;33.47;19.05;;;;;;;13.34;100.00;101546.47;6097558;23;20019;-78
2023/05/09 05:03:42;;;;;;;30.75;19.05;;;;;;;13.34;100.00;101549.91;6068699;23;20033;-78
2023/05/09 05:06:08;;;;;;;32.65;19.13;;;;;;;13.36;100.00;101546.78;6069103;23;20023;-78
2023/05/09 05:08:36;;;;;;;30.90;19.13;;;;;;;13.40;100.00;101544.00;6069010;23;20496;-78
2023/05/09 05:11:03;;;;;;;30.02;18.13;;;;;;;13.43;100.00;101540.44;6070775;23;20015;-78
2023/05/09 05:13:29;;;;;;;29.15;18.55;;;;;;;13.47;100.00;101539.13;6068971;23;20079;-78
2023/05/09 05:15:59;;;;;;;34.08;19.08;;;;;;;13.52;100.00;101537.81;6045083;23;20533;-79
2023/05/09 05:18:26;;;;;;;33.38;19.05;;;;;;;13.56;100.00;101527.72;6069492;23;20142;-79
2023/05/09 05:20:53;;;;;;;25.00;17.75;;;;;;;13.59;100.00;101526.84;6068964;23;20517;-78
2023/05/09 05:23:19;;;;;;;26.75;18.30;;;;;;;13.59;100.00;101516.88;6068937;23;20050;-78
2023/05/09 05:25:49;;;;;;;26.85;17.30;;;;;;;13.66;100.00;101529.97;6068728;23;20098;-79
2023/05/09 05:28:16;;;;;;;28.70;17.13;;;;;;;13.68;100.00;101506.19;6068932;23;20019;-78
2023/05/09 05:30:43;;;;;;;23.17;15.65;;;;;;;13.71;100.00;101512.59;6068318;23;20024;-79
2023/05/09 05:33:10;;;;;;;27.65;17.77;;;;;;;13.74;100.00;101500.25;6068974;23;20024;-79
2023/05/09 05:35:37;;;;;;;30.05;17.17;;;;;;;13.80;100.00;101501.91;6068981;23;20457;-79
2023/05/09 05:38:04;;;;;;;28.88;17.65;;;;;;;13.88;100.00;101502.38;6068664;23;20022;-79
2023/05/09 05:40:30;;;;;;;23.80;16.25;;;;;;;13.92;100.00;101497.63;6068628;23;20023;-79
2023/05/09 05:43:00;;;;;;;22.27;16.05;;;;;;;13.99;100.00;101505.38;6068635;23;20118;-78
2023/05/09 05:45:29;;;;;;;26.42;16.90;;;;;;;14.05;100.00;101506.25;6070208;23;20094;-79
2023/05/09 05:47:56;;;;;;;32.05;16.17;;;;;;;14.09;100.00;101498.81;6068627;23;20055;-79
2023/05/09 05:50:23;;;;;;;27.50;15.35;;;;;;;14.19;100.00;101494.22;6069228;23;20054;-79
2023/05/09 05:52:50;;;;;;;24.60;15.02;;;;;;;14.26;100.00;101497.38;6070393;23;20103;-79
2023/05/09 05:55:17;;;;;;;28.50;15.70;;;;;;;14.31;100.00;101491.41;6068546;23;20051;-80
2023/05/09 05:57:45;;;;;;;20.60;14.60;;;;;;;14.37;99.49;101482.78;6070622;23;20082;-80
2023/05/09 06:00:14;;;;;;;22.17;14.93;;;;;;;14.39;99.24;101486.50;6068055;23;20024;-81
2023/05/09 06:02:47;;;;;;;23.15;14.32;;;;;;;14.40;99.05;101479.94;6068779;23;20055;-83
2023/05/09 06:05:25;;;;;;;18.42;13.73;;;;;;;14.43;99.04;101489.03;6069324;23;20019;-80
2023/05/09 06:07:51;;;;;;;21.77;14.85;;;;;;;14.47;98.27;101486.97;6069391;23;20477;-79
2023/05/09 06:10:18;;;;;;;21.90;13.95;;;;;;;14.46;98.22;101483.53;6071147;23;20044;-79
2023/05/09 06:12:45;;;;;;;23.40;13.82;;;;;;;14.46;98.14;101480.84;6069803;23;20103;-79
2023/05/09 06:15:11;;;;;;;20.15;14.13;;;;;;;14.50;97.78;101478.03;6068932;23;20015;-79
2023/05/09 06:17:42;;;;;;;21.20;14.30;;;;;;;14.51;97.26;101471.47;6069770;23;20031;-81
2023/05/09 06:20:09;;;;;;;22.23;14.55;;;;;;;14.50;96.67;101473.41;6069231;23;20027;-81
2023/05/09 06:22:35;;;;;;;20.13;13.68;;;;;;;14.52;96.86;101471.03;6071334;23;20450;-80
2023/05/09 06:25:02;;;;;;;19.08;14.55;;;;;;;14.53;96.83;101459.13;6071031;23;20026;-80
2023/05/09 06:27:28;;;;;;;19.17;13.88;;;;;;;14.52;96.06;101462.25;6071020;23;20011;-80
2023/05/09 06:29:55;;;;;;;21.90;14.73;;;;;;;14.49;96.72;101463.88;6069462;23;20398;-80
2023/05/09 06:32:23;;;;;;;18.63;13.98;;;;;;;14.54;96.73;101451.81;6070327;23;20063;-82
2023/05/09 06:34:51;;;;;;;24.75;14.93;;;;;;;14.56;96.02;101447.50;6072603;23;20083;-81
2023/05/09 06:37:18;;;;;;;18.33;14.63;;;;;;;14.58;96.50;101447.06;6072417;23;20417;-80
2023/05/09 06:39:44;;;;;;;19.30;14.10;;;;;;;14.59;95.99;101446.59;6072687;23;20024;-80
2023/05/09 06:42:10;;;;;;;19.73;14.55;;;;;;;14.61;95.98;101432.75;6071649;23;20158;-81
2023/05/09 06:44:38;;;;;;;26.75;14.80;;;;;;;14.61;95.61;101433.50;6070965;23;20020;-80
2023/05/09 06:47:04;;;;;;;23.65;14.73;;;;;;;14.61;96.08;101428.16;6070731;23;20469;-81
2023/05/09 06:49:31;;;;;;;20.67;14.32;;;;;;;14.62;95.95;101434.25;6072654;23;20117;-82
2023/05/09 06:51:57;;;;;;;17.35;13.52;;;;;;;14.64;95.75;101427.25;6070658;23;20026;-80
2023/05/09 06:54:24;;;;;;;17.85;13.73;;;;;;;14.64;95.45;101427.25;6072443;23;20350;-80
2023/05/09 06:56:50;;;;;;;24.17;15.10;;;;;;;14.67;95.53;101423.69;6072120;23;20103;-79
2023/05/09 06:59:17;;;;;;;21.15;14.38;;;;;;;14.65;95.29;101426.06;6072035;23;20026;-79
2023/05/09 07:01:43;;;;;;;24.63;15.02;;;;;;;14.67;95.55;101425.59;6072653;23;20019;-81
2023/05/09 07:04:10;;;;;;;20.00;14.20;;;;;;;14.71;95.53;101420.09;6099107;23;20177;-79
2023/05/09 07:06:36;;;;;;;19.75;14.38;;;;;;;14.72;95.72;101422.31;6075507;23;20023;-80
2023/05/09 07:09:03;;;;;;;19.05;14.77;;;;;;;14.75;96.47;101423.34;6101067;23;20019;-81
2023/05/09 07:11:34;;;;;;;22.40;14.50;;;;;;;14.80;96.10;101417.38;6075497;23;20019;-79
2023/05/09 07:14:02;;;;;;;20.45;14.85;;;;;;;14.80;96.06;101418.09;6101150;23;20019;-80
2023/05/09 07:16:29;;;;;;;23.55;14.95;;;;;;;14.82;96.48;101418.41;6101394;23;20018;-80
2023/05/09 07:18:55;;;;;;;22.90;15.50;;;;;;;14.84;96.45;101416.00;6100721;23;20411;-80
2023/05/09 07:21:22;;;;;;;22.00;15.25;;;;;;;14.88;97.69;101413.91;6101297;23;20030;-79
2023/05/09 07:23:48;;;;;;;23.85;15.23;;;;;;;14.87;96.46;101412.44;6101357;23;20025;-78
2023/05/09 07:26:15;;;;;;;19.58;14.98;;;;;;;14.87;97.09;101409.00;6100123;23;20425;-78
2023/05/09 07:28:41;;;;;;;20.40;15.27;;;;;;;14.90;97.78;101406.16;6101185;23;20015;-77
2023/05/09 07:31:08;;;;;;;21.77;14.82;;;;;;;14.90;98.77;101405.41;6100744;23;20098;-78
2023/05/09 07:33:34;;;;;;;21.95;14.70;;;;;;;14.94;98.81;101401.38;6101122;23;20022;-76
2023/05/09 07:36:01;;;;;;;19.73;14.85;;;;;;;14.90;98.43;101408.09;6074667;23;20026;-79
2023/05/09 07:38:28;;;;;;;20.73;14.60;;;;;;;14.93;98.96;101409.88;6101214;23;20066;-77
2023/05/09 07:40:54;;;;;;;23.80;15.90;;;;;;;14.95;99.22;101407.50;6100517;23;20054;-79
2023/05/09 07:43:21;;;;;;;20.02;14.73;;;;;;;15.00;99.03;101399.56;6075397;23;20505;-77
2023/05/09 07:45:47;;;;;;;18.50;14.57;;;;;;;15.00;99.30;101396.91;6101226;23;20090;-77
2023/05/09 07:48:14;;;;;;;21.67;15.02;;;;;;;15.02;99.19;101391.06;6100979;23;20035;-81
2023/05/09 07:50:40;;;;;;;16.00;13.90;;;;;;;15.03;99.74;101397.94;6051272;23;20022;-79
2023/05/09 07:53:07;;;;;;;22.75;15.30;;;;;;;14.99;99.10;101400.78;6100833;23;20349;-78
2023/05/09 07:55:33;;;;;;;16.75;14.55;;;;;;;14.99;99.19;101392.72;6074656;23;20022;-78
2023/05/09 07:58:00;;;;;;;19.20;14.93;;;;;;;15.02;100.00;101391.06;6100506;23;20019;-79
2023/05/09 08:00:26;;;;;;;19.65;14.80;;;;;;;15.04;99.89;101386.00;6099376;23;20031;-77
2023/05/09 08:02:53;;;;;;;22.27;13.68;;;;;;;15.03;100.00;101384.53;6100723;23;20023;-77
2023/05/09 08:05:20;;;;;;;17.30;13.57;;;;;;;15.10;100.00;101375.41;6074746;23;20027;-79
2023/05/09 08:07:46;;;;;;;18.33;13.73;;;;;;;15.09;100.00;101371.97;6101067;23;20015;-78
2023/05/09 08:10:13;;;;;;;16.02;14.32;;;;;;;15.06;100.00;101375.56;6074540;23;20019;-85
2023/05/09 08:12:39;;;;;;;18.63;13.68;;;;;;;15.15;100.00;101369.41;6100796;23;20026;-78
2023/05/09 08:15:06;;;;;;;18.17;13.52;;;;;;;15.14;100.00;101366.00;6100310;23;20061;-82
2023/05/09 08:17:41;;;;;;;18.33;13.00;;;;;;;15.11;100.00;101360.81;6077248;23;20019;-83
2023/05/09 08:20:08;;;;;;;18.23;13.57;;;;;;;15.12;100.00;101356.94;6100344;23;20027;-83
2023/05/09 08:22:34;;;;;;;16.40;13.40;;;;;;;15.18;100.00;101357.78;6100960;23;20015;-82
2023/05/09 08:25:01;;;;;;;17.40;13.35;;;;;;;15.24;100.00;101354.00;6099997;23;20445;-83
2023/05/09 08:27:27;;;;;;;18.60;12.77;;;;;;;15.19;100.00;101353.91;6075396;23;20094;-84
2023/05/09 08:29:54;;;;;;;17.17;13.35;;;;;;;15.22;100.00;101353.72;6101129;23;20042;-82
2023/05/09 08:32:20;;;;;;;16.95;12.98;;;;;;;15.27;100.00;101342.34;6101019;23;20022;-83
2023/05/09 08:34:47;;;;;;;16.10;12.88;;;;;;;15.27;100.00;101336.25;6075580;23;20075;-84
2023/05/09 08:37:13;;;;;;;16.27;12.63;;;;;;;15.30;100.00;101338.75;6100689;23;20018;-84
2023/05/09 08:39:41;;;;;;;14.32;11.55;;;;;;;15.35;100.00;101340.81;6100565;23;20015;-81
2023/05/09 08:42:09;;;;;;;17.73;11.13;;;;;;;15.33;100.00;101339.78;6075101;23;20514;-82
2023/05/09 08:44:36;;;;;;;12.98;10.88;;;;;;;15.21;99.76;101327.34;6100977;23;20025;-84
2023/05/09 08:47:03;;;;;;;15.23;11.13;;;;;;;15.18;100.00;101337.06;6100643;23;20035;-84
2023/05/09 08:49:30;;;;;;;12.07;10.88;;;;;;;15.22;100.00;101334.19;6101249;23;20138;-85
2023/05/09 08:51:57;;;;;;;10.70;9.70;;;;;;;15.27;100.00;101325.53;6074882;23;20445;-80
2023/05/09 08:54:24;;;;;;;11.90;10.25;;;;;;;15.25;100.00;101328.66;6099997;23;20066;-82
2023/05/09 08:56:51;;;;;;;8.73;7.97;;;;;;;15.16;99.25;101323.38;6100949;23;20022;-80
2023/05/09 08:59:18;;;;;;;11.63;8.65;;;;;;;15.16;99.33;101319.97;6098868;23;20106;-81
2023/05/09 09:01:46;;;;;;;9.25;8.35;;;;;;;15.19;99.79;101316.38;6100814;23;20023;-80
2023/05/09 09:04:12;;;;;;;9.50;8.52;;;;;;;15.22;100.00;101315.44;6100259;23;20023;-81
2023/05/09 09:06:39;;;;;;;9.48;8.48;;;;;;;15.23;98.65;101309.59;6101184;23;20345;-80
2023/05/09 09:09:07;;;;;;;9.38;8.48;;;;;;;15.17;99.55;101311.47;6073590;23;20023;-79
2023/05/09 09:11:36;;;;;;;10.23;8.82;;;;;;;15.22;100.00;101312.75;6100893;23;20106;-82
2023/05/09 09:14:12;;;;;;;9.05;8.27;;;;;;;15.18;99.89;101307.56;6100594;23;20019;-80
2023/05/09 09:16:42;;;;;;;9.90;8.90;;;;;;;15.23;99.97;101311.53;6101021;23;20019;-81
2023/05/09 09:19:12;;;;;;;10.57;8.93;;;;;;;15.25;99.73;101309.88;6050433;23;20027;-81
2023/05/09 09:21:41;;;;;;;9.30;8.23;;;;;;;15.29;100.00;101307.03;6050220;23;20102;-80
2023/05/09 09:24:11;;;;;;;10.40;8.30;;;;;;;15.27;98.96;101307.50;6074585;23;20025;-82
2023/05/09 09:26:48;;;;;;;8.65;7.53;;;;;;;15.21;99.29;101305.91;6074833;23;20054;-82
2023/05/09 09:29:17;;;;;;;7.70;7.13;;;;;;;15.15;100.00;101299.69;6100504;23;20029;-81
2023/05/09 09:31:45;;;;;;;7.65;7.05;;;;;;;15.16;99.58;101301.19;6100523;23;20029;-81
2023/05/09 09:34:17;;;;;;;8.70;7.90;;;;;;;15.19;100.00;101297.59;6050577;23;20019;-82
2023/05/09 09:36:45;;;;;;;8.43;7.70;;;;;;;15.26;100.00;101294.53;6100358;23;20015;-81
2023/05/09 09:39:13;;;;;;;8.70;7.85;;;;;;;15.37;100.00;101294.03;6050488;23;20506;-83
2023/05/09 09:41:41;;;;;;;8.05;7.35;;;;;;;15.42;100.00;101288.75;6100652;23;20023;-82
2023/05/09 09:44:12;;;;;;;8.02;7.25;;;;;;;15.40;99.96;101288.47;6100345;23;20015;-80
2023/05/09 09:46:52;;;;;;;8.98;7.30;;;;;;;15.31;99.32;101286.59;6074975;23;20080;-79
2023/05/09 09:49:23;;;;;;;7.32;6.68;;;;;;;15.26;99.58;101284.56;6074646;23;20090;-83
2023/05/09 09:51:51;;;;;;;8.18;7.38;;;;;;;15.27;100.00;101285.28;6074874;23;20039;-81
2023/05/09 09:54:18;;;;;;;7.22;6.53;;;;;;;15.28;100.00;101284.84;6100223;23;20050;-82
2023/05/09 09:56:47;;;;;;;7.47;6.80;;;;;;;15.27;100.00;101282.63;6100943;23;20019;-81
2023/05/09 09:59:16;;;;;;;7.05;6.30;;;;;;;15.17;99.55;101281.22;6050274;23;20057;-82
2023/05/09 10:02:06;;;;;;;7.32;6.63;;;;;;;15.05;99.30;101276.81;6100340;23;20387;-82
2023/05/09 10:04:35;;;;;;;7.35;6.65;;;;;;;14.97;100.00;101273.75;6074712;23;20042;-82
2023/05/09 10:07:07;;;;;;;9.68;7.00;;;;;;;14.98;100.00;101278.66;6098550;23;20054;-80
2023/05/09 10:09:36;;;;;;;7.60;6.30;;;;;;;15.00;100.00;101273.56;6101766;23;20034;-80
2023/05/09 10:12:05;;;;;;;7.15;6.57;;;;;;;14.99;100.00;101274.03;6101379;23;20022;-80
2023/05/09 10:14:33;;;;;;;7.32;6.63;;;;;;;15.05;100.00;101279.50;6101640;23;20019;-81
2023/05/09 10:17:03;;;;;;;7.75;7.05;;;;;;;15.15;100.00;101273.63;6074774;23;20025;-81
2023/05/09 10:19:30;;;;;;;8.05;7.35;;;;;;;15.24;100.00;101278.16;6100765;23;20023;-80
2023/05/09 10:22:03;;;;;;;7.65;6.93;;;;;;;15.32;100.00;101268.56;6101420;23;20023;-86
2023/05/09 10:24:38;;;;;;;7.20;6.60;;;;;;;15.36;100.00;101269.13;6101820;23;20042;-86
2023/05/09 10:27:10;;;;;;;7.80;7.10;;;;;;;15.48;100.00;101270.84;6101124;23;20086;-86
2023/05/09 10:29:40;;;;;;;7.90;6.55;;;;;;;15.40;99.79;101263.59;6101775;23;20018;-84
2023/05/09 10:32:30;;;;;;;7.25;6.65;;;;;;;15.34;100.00;101263.50;6101478;23;20419;-84
2023/05/09 10:35:03;;;;;;;7.43;6.72;;;;;;;15.29;100.00;101258.75;6100840;23;20496;-84
2023/05/09 10:37:30;;;;;;;7.20;6.60;;;;;;;15.20;100.00;101258.81;6076028;23;20626;-87
2023/05/09 10:40:02;;;;;;;7.03;6.53;;;;;;;15.20;100.00;101251.50;6101307;23;20023;-87
2023/05/09 10:42:30;;;;;;;7.18;6.57;;;;;;;15.07;99.59;101250.28;6075363;23;20449;-84
2023/05/09 10:44:57;;;;;;;7.47;6.25;;;;;;;15.00;100.00;101243.34;6101220;23;20021;-80
2023/05/09 10:47:27;;;;;;;8.80;7.15;;;;;;;15.06;100.00;101246.88;6075569;23;20054;-85
2023/05/09 10:49:54;;;;;;;8.23;6.93;;;;;;;15.05;100.00;101239.28;6074859;23;20094;-84
2023/05/09 10:52:21;;;;;;;7.38;6.78;;;;;;;15.04;100.00;101235.13;6100940;23;20040;-85
2023/05/09 10:55:02;;;;;;;7.63;6.93;;;;;;;15.16;100.00;101226.09;6101250;23;20337;-84
2023/05/09 10:57:30;;;;;;;7.63;6.75;;;;;;;15.15;100.00;101227.31;6101240;23;20019;-83
2023/05/09 10:59:59;;;;;;;7.95;7.10;;;;;;;15.19;100.00;101217.13;6100756;23;20015;-79
2023/05/09 11:02:29;;;;;;;7.57;6.97;;;;;;;15.30;100.00;101217.31;6100964;23;20019;-83
2023/05/09 11:05:17;;;;;;;7.57;6.88;;;;;;;15.35;100.00;101217.44;6100302;23;20022;-83
2023/05/09 11:07:44;;;;;;;7.38;6.78;;;;;;;15.22;100.00;101214.25;6101303;23;20018;-84
2023/05/09 11:10:18;;;;;;;7.40;6.80;;;;;;;15.16;100.00;101216.13;6100927;23;20022;-85
2023/05/09 11:12:54;;;;;;;9.38;7.35;;;;;;;15.19;100.00;101211.78;6101661;23;20015;-84